createdAt,value
2023-05-14T00:02:26.095Z,1000011.0
2023-05-14T00:05:26.724Z,1000022.0
2023-05-14T00:08:25.816Z,1000006.0
2023-05-14T00:11:26.129Z,1000013.0
2023-05-14T00:14:25.753Z,1000009.0
2023-05-14T00:17:27.985Z,1000006.0
2023-05-14T00:20:26.062Z,1000010.0
2023-05-14T00:23:25.909Z,1000006.0
2023-05-14T00:26:25.934Z,1000005.0
2023-05-14T00:29:25.718Z,1000000.0
2023-05-14T00:32:26.085Z,1000020.0
2023-05-14T00:35:25.929Z,1000022.0
2023-05-14T00:38:25.713Z,1000027.0
2023-05-14T00:41:26.226Z,1000020.0
2023-05-14T00:44:25.915Z,1000013.0
2023-05-14T00:47:25.886Z,1000014.0
2023-05-14T00:50:26.027Z,1000021.0
2023-05-14T00:53:26.227Z,1000019.0
2023-05-14T00:56:25.840Z,1000014.0
2023-05-14T00:59:25.766Z,1000016.0
2023-05-14T01:02:26.284Z,1000009.0
2023-05-14T01:05:26.440Z,1000013.0
2023-05-14T01:08:25.742Z,1000005.0
2023-05-14T01:11:25.957Z,1000006.0
2023-05-14T01:14:25.832Z,1000008.0
2023-05-14T01:17:26.145Z,1000026.0
2023-05-14T01:20:26.169Z,1000013.0
2023-05-14T01:23:25.864Z,1000015.0
2023-05-14T01:26:25.788Z,1000017.0
2023-05-14T01:29:25.690Z,1000021.0
2023-05-14T01:32:26.126Z,1000017.0
2023-05-14T01:35:25.971Z,1000011.0
2023-05-14T01:38:26.769Z,1000008.0
2023-05-14T01:41:26.080Z,1000015.0
2023-05-14T01:44:26.060Z,1000016.0
2023-05-14T01:47:25.979Z,1000013.0
2023-05-14T01:50:25.928Z,1000016.0
2023-05-14T01:53:25.850Z,1000024.0
2023-05-14T01:56:25.721Z,1000022.0
2023-05-14T01:59:25.710Z,1000018.0
2023-05-14T02:02:26.226Z,1000008.0
2023-05-14T02:05:26.127Z,1000013.0
2023-05-14T02:08:25.793Z,1000005.0
2023-05-14T02:11:25.976Z,1000001.0
2023-05-14T02:14:25.805Z,1000000.0
2023-05-14T02:17:25.873Z,1000009.0
2023-05-14T02:20:26.013Z,1000000.0
2023-05-14T02:23:34.418Z,1000011.0
2023-05-14T02:26:25.966Z,1000007.0
2023-05-14T02:29:25.823Z,1000008.0
2023-05-14T02:32:26.207Z,1000008.0
2023-05-14T02:35:26.166Z,1000007.0
2023-05-14T02:38:26.916Z,1000008.0
2023-05-14T02:41:27.455Z,1000008.0
2023-05-14T02:44:25.830Z,1000016.0
2023-05-14T02:47:26.113Z,1000027.0
2023-05-14T02:50:25.989Z,1000024.0
2023-05-14T02:53:25.753Z,1000025.0
2023-05-14T02:56:25.795Z,1000022.0
2023-05-14T02:59:32.025Z,1000016.0
2023-05-14T03:02:29.161Z,1000019.0
2023-05-14T03:05:26.900Z,1000016.0
2023-05-14T03:08:25.991Z,1000006.0
2023-05-14T03:11:26.082Z,1000007.0
2023-05-14T03:14:25.745Z,1000006.0
2023-05-14T03:17:26.201Z,1000004.0
2023-05-14T03:20:26.150Z,1000012.0
2023-05-14T03:23:25.740Z,1000008.0
2023-05-14T03:26:25.853Z,1000008.0
2023-05-14T03:29:25.904Z,1000017.0
2023-05-14T03:32:25.985Z,1000015.0
2023-05-14T03:35:25.869Z,1000010.0
2023-05-14T03:38:25.916Z,1000007.0
2023-05-14T03:41:26.269Z,1000010.0
2023-05-14T03:44:25.775Z,1000013.0
2023-05-14T03:47:25.897Z,1000014.0
2023-05-14T03:50:26.234Z,1000014.0
2023-05-14T03:53:25.818Z,1000009.0
2023-05-14T03:56:25.729Z,1000013.0
2023-05-14T03:59:25.797Z,1000013.0
2023-05-14T04:02:26.041Z,1000015.0
2023-05-14T04:05:27.102Z,1000021.0
2023-05-14T04:08:25.768Z,1000017.0
2023-05-14T04:11:25.932Z,1000021.0
2023-05-14T04:14:25.812Z,1000014.0
2023-05-14T04:17:25.946Z,1000019.0
2023-05-14T04:20:26.169Z,1000029.0
2023-05-14T04:23:26.425Z,1000024.0
2023-05-14T04:26:25.829Z,1000033.0
2023-05-14T04:29:25.787Z,1000034.0
2023-05-14T04:32:25.977Z,1000027.0
2023-05-14T04:35:25.760Z,1000033.0
2023-05-14T04:38:27.156Z,1000039.0
2023-05-14T04:41:26.303Z,1000044.0
2023-05-14T04:44:25.763Z,1000047.0
2023-05-14T04:47:27.766Z,1000059.0
2023-05-14T04:50:26.311Z,1000054.0
2023-05-14T04:53:25.794Z,1000048.0
2023-05-14T04:56:26.047Z,1000051.0
2023-05-14T04:59:25.724Z,1000043.0
2023-05-14T05:02:26.204Z,1000042.0
2023-05-14T05:05:26.399Z,1000043.0
2023-05-14T05:08:25.779Z,1000045.0
2023-05-14T05:11:27.975Z,1000045.0
2023-05-14T05:14:25.882Z,1000048.0
2023-05-14T05:17:26.027Z,1000041.0
2023-05-14T05:20:35.880Z,1000048.0
2023-05-14T05:23:25.829Z,1000044.0
2023-05-14T05:26:26.962Z,1000049.0
2023-05-14T05:29:25.785Z,1000044.0
2023-05-14T05:32:26.099Z,1000069.0
2023-05-14T05:35:25.968Z,1000078.0
2023-05-14T05:38:25.933Z,1000097.0
2023-05-14T05:41:25.927Z,1000105.0
2023-05-14T05:44:25.729Z,1000134.0
2023-05-14T05:47:26.034Z,1000146.0
2023-05-14T05:50:26.009Z,1000154.0
2023-05-14T05:53:25.764Z,1000186.0
2023-05-14T05:56:25.797Z,1000172.0
2023-05-14T05:59:25.686Z,1000156.0
2023-05-14T06:02:26.110Z,1000137.0
2023-05-14T06:05:26.068Z,1000127.0
2023-05-14T06:08:26.133Z,1000115.0
2023-05-14T06:11:25.953Z,1000105.0
2023-05-14T06:14:25.840Z,1000103.0
2023-05-14T06:17:26.126Z,1000102.0
2023-05-14T06:20:26.271Z,1000116.0
2023-05-14T06:23:25.855Z,1000100.0
2023-05-14T06:26:25.887Z,1000106.0
2023-05-14T06:29:25.853Z,1000109.0
2023-05-14T06:32:26.026Z,1000169.0
2023-05-14T06:35:27.451Z,1000115.0
2023-05-14T06:38:25.773Z,1000101.0
2023-05-14T06:41:26.080Z,1000108.0
2023-05-14T06:44:25.822Z,1000109.0
2023-05-14T06:47:26.443Z,1000115.0
2023-05-14T06:50:27.154Z,1000131.0
2023-05-14T06:53:25.854Z,1000122.0
2023-05-14T06:56:25.766Z,1000112.0
2023-05-14T06:59:25.729Z,1000110.0
2023-05-14T07:02:28.713Z,1000127.0
2023-05-14T07:05:25.993Z,1000133.0
2023-05-14T07:08:25.842Z,1000130.0
2023-05-14T07:11:25.915Z,1000152.0
2023-05-14T07:14:25.869Z,1000149.0
2023-05-14T07:17:25.939Z,1000166.0
2023-05-14T07:20:26.505Z,1000152.0
2023-05-14T07:23:29.007Z,1000188.0
2023-05-14T07:26:25.797Z,1000207.0
2023-05-14T07:29:25.807Z,1000219.0
2023-05-14T07:32:26.418Z,1000183.0
2023-05-14T07:35:25.888Z,1000173.0
2023-05-14T07:38:27.751Z,1000179.0
2023-05-14T07:41:26.073Z,1000176.0
2023-05-14T07:44:35.798Z,1000172.0
2023-05-14T07:47:26.051Z,1000170.0
2023-05-14T07:50:26.446Z,1000167.0
2023-05-14T07:53:25.847Z,1000170.0
2023-05-14T07:56:27.586Z,1000188.0
2023-05-14T07:59:25.791Z,1000168.0
2023-05-14T08:02:27.991Z,1000197.0
2023-05-14T08:05:26.746Z,1000190.0
2023-05-14T08:08:25.765Z,1000180.0
2023-05-14T08:11:26.285Z,1000164.0
2023-05-14T08:14:25.765Z,1000173.0
2023-05-14T08:17:26.209Z,1000191.0
2023-05-14T08:20:26.409Z,1000189.0
2023-05-14T08:23:28.389Z,1000180.0
2023-05-14T08:26:25.778Z,1000178.0
2023-05-14T08:29:27.661Z,1000297.0
2023-05-14T08:32:35.923Z,1000380.0
2023-05-14T08:35:25.868Z,1000299.0
2023-05-14T08:38:25.861Z,1000262.0
2023-05-14T08:41:26.073Z,1000266.0
2023-05-14T08:44:25.898Z,1000260.0
2023-05-14T08:47:25.812Z,1000250.0
2023-05-14T08:50:26.685Z,1000229.0
2023-05-14T08:53:25.762Z,1000244.0
2023-05-14T08:56:26.041Z,1000238.0
2023-05-14T08:59:25.783Z,1000239.0
2023-05-14T09:02:26.197Z,1000241.0
2023-05-14T09:05:26.236Z,1000249.0
2023-05-14T09:08:25.986Z,1000254.0
2023-05-14T09:11:26.054Z,1000271.0
2023-05-14T09:14:26.412Z,1000329.0
2023-05-14T09:17:26.418Z,1000318.0
2023-05-14T09:20:26.709Z,1000296.0
2023-05-14T09:23:26.636Z,1000253.0
2023-05-14T09:26:25.798Z,1000288.0
2023-05-14T09:29:25.785Z,1000313.0
2023-05-14T09:32:26.121Z,1000388.0
2023-05-14T09:35:25.893Z,1000386.0
2023-05-14T09:38:25.754Z,1000371.0
2023-05-14T09:41:26.002Z,1000297.0
2023-05-14T09:44:26.881Z,1000322.0
2023-05-14T09:47:26.009Z,1000302.0
2023-05-14T09:50:26.226Z,1000301.0
2023-05-14T09:53:27.140Z,1000294.0
2023-05-14T09:56:25.820Z,1000285.0
2023-05-14T09:59:25.745Z,1000277.0
2023-05-14T10:02:26.363Z,1000269.0
2023-05-14T10:05:29.235Z,1000278.0
2023-05-14T10:08:25.881Z,1000272.0
2023-05-14T10:11:26.046Z,1000267.0
2023-05-14T10:14:25.817Z,1000252.0
2023-05-14T10:17:26.272Z,1000311.0
2023-05-14T10:20:26.683Z,1000289.0
2023-05-14T10:23:26.855Z,1000263.0
2023-05-14T10:26:25.913Z,1000263.0
2023-05-14T10:29:25.881Z,1000278.0
2023-05-14T10:32:26.210Z,1000316.0
2023-05-14T10:35:26.195Z,1000300.0
2023-05-14T10:38:26.775Z,1000287.0
2023-05-14T10:41:26.654Z,1000278.0
2023-05-14T10:44:25.900Z,1000314.0
2023-05-14T10:47:26.134Z,1000355.0
2023-05-14T10:50:35.820Z,1000362.0
2023-05-14T10:53:25.986Z,1000283.0
2023-05-14T10:56:25.703Z,1000299.0
2023-05-14T10:59:25.714Z,1000324.0
2023-05-14T11:02:26.087Z,1000333.0
2023-05-14T11:05:26.136Z,960933.2
2023-05-14T11:08:27.056Z,821648.4
2023-05-14T11:11:25.858Z,588704.5
2023-05-14T11:14:26.393Z,445712.8
2023-05-14T11:17:35.974Z,385906.3
2023-05-14T11:20:26.211Z,371421.0
2023-05-14T11:23:26.220Z,301871.8
2023-05-14T11:26:25.864Z,274516.5
2023-05-14T11:29:25.934Z,270299.7
2023-05-14T11:32:26.142Z,339766.0
2023-05-14T11:35:27.586Z,344530.1
2023-05-14T11:38:25.797Z,442619.1
2023-05-14T11:41:25.899Z,315754.8
2023-05-14T11:44:25.857Z,275958.7
2023-05-14T11:47:26.082Z,283209.1
2023-05-14T11:50:35.730Z,236240.9
2023-05-14T11:53:25.788Z,154708.8
2023-05-14T11:56:26.276Z,121892.5
2023-05-14T11:59:25.917Z,93819.4
2023-05-14T12:02:26.172Z,116083.6
2023-05-14T12:05:26.948Z,115302.7
2023-05-14T12:08:25.728Z,111985.0
2023-05-14T12:11:26.199Z,94052.7
2023-05-14T12:14:25.822Z,91673.9
2023-05-14T12:17:26.903Z,75836.6
2023-05-14T12:20:34.318Z,70413.8
2023-05-14T12:23:25.923Z,67858.5
2023-05-14T12:26:25.814Z,53515.0
2023-05-14T12:29:27.104Z,83722.8
2023-05-14T12:32:35.924Z,64281.8
2023-05-14T12:35:26.636Z,60398.6
2023-05-14T12:38:35.906Z,114713.5
2023-05-14T12:41:25.688Z,93804.7
2023-05-14T12:44:25.810Z,86609.8
2023-05-14T12:47:26.100Z,97421.3
2023-05-14T12:50:27.956Z,51712.1
2023-05-14T12:53:43.945Z,43613.2
2023-05-14T12:56:25.858Z,59567.3
2023-05-14T12:59:25.774Z,45070.4
2023-05-14T13:02:26.189Z,50886.4
2023-05-14T13:05:26.310Z,60448.8
2023-05-14T13:08:25.951Z,63415.1
2023-05-14T13:11:25.828Z,41258.0
2023-05-14T13:14:25.909Z,42428.6
2023-05-14T13:17:26.194Z,50395.3
2023-05-14T13:20:26.342Z,49486.4
2023-05-14T13:23:25.871Z,37852.3
2023-05-14T13:26:26.220Z,50779.8
2023-05-14T13:29:25.773Z,45752.9
2023-05-14T13:32:26.017Z,22822.2
2023-05-14T13:35:25.904Z,13491.1
2023-05-14T13:38:25.769Z,14381.2
2023-05-14T13:41:28.260Z,12112.4
2023-05-14T13:44:25.932Z,10976.1
2023-05-14T13:47:26.144Z,9107.0
2023-05-14T13:50:26.088Z,8768.3
2023-05-14T13:53:25.815Z,8542.7
2023-05-14T13:56:26.013Z,8895.9
2023-05-14T13:59:25.759Z,8882.6
2023-05-14T14:02:26.937Z,8271.9
2023-05-14T14:05:26.094Z,8952.7
2023-05-14T14:08:47.855Z,8789.3
2023-05-14T14:11:25.855Z,9325.6
2023-05-14T14:14:25.980Z,9342.8
2023-05-14T14:17:26.175Z,8526.0
2023-05-14T14:20:26.070Z,6758.3
2023-05-14T14:23:25.844Z,6583.1
2023-05-14T14:26:26.064Z,6338.3
2023-05-14T14:29:26.283Z,6673.9
2023-05-14T14:32:26.002Z,6283.9
2023-05-14T14:35:25.970Z,6095.3
2023-05-14T14:38:27.799Z,5486.5
2023-05-14T14:41:25.753Z,5121.9
2023-05-14T14:44:25.811Z,6303.8
2023-05-14T14:47:26.169Z,7195.7
2023-05-14T14:50:25.877Z,7294.0
2023-05-14T14:53:25.882Z,6479.2
2023-05-14T14:56:26.108Z,6233.3
2023-05-14T14:59:25.839Z,52571.3
2023-05-14T15:02:27.935Z,1007374.0
2023-05-14T15:05:26.352Z,1009862.0
2023-05-14T15:08:25.818Z,1004868.0
2023-05-14T15:11:26.022Z,1008916.0
2023-05-14T15:14:25.805Z,1007869.0
2023-05-14T15:17:26.207Z,1006569.0
2023-05-14T15:20:25.962Z,1007138.0
2023-05-14T15:23:25.848Z,1004166.0
2023-05-14T15:26:25.949Z,1004452.0
2023-05-14T15:29:25.780Z,1008083.0
2023-05-14T15:32:26.038Z,1004623.0
2023-05-14T15:35:26.131Z,1008578.0
2023-05-14T15:38:25.817Z,1009873.0
2023-05-14T15:41:25.730Z,1005716.0
2023-05-14T15:44:25.773Z,1016707.0
2023-05-14T15:47:26.248Z,1008894.0
2023-05-14T15:50:26.168Z,1007351.0
2023-05-14T15:53:25.857Z,1008860.0
2023-05-14T15:56:25.778Z,1011629.0
2023-05-14T15:59:28.919Z,1007050.0
2023-05-14T16:02:26.008Z,1005550.0
2023-05-14T16:05:26.522Z,1006463.0
2023-05-14T16:08:28.705Z,1010717.0
2023-05-14T16:11:26.240Z,1005455.0
2023-05-14T16:14:25.835Z,1003514.0
2023-05-14T16:17:26.280Z,1006629.0
2023-05-14T16:20:28.598Z,1003850.0
2023-05-14T16:23:25.692Z,1006348.0
2023-05-14T16:26:25.868Z,1005355.0
2023-05-14T16:29:25.769Z,1006177.0
2023-05-14T16:32:25.836Z,1005786.0
2023-05-14T16:35:25.849Z,1005149.0
2023-05-14T16:38:25.747Z,1004482.0
2023-05-14T16:41:29.103Z,1005621.0
2023-05-14T16:44:26.266Z,1008207.0
2023-05-14T16:47:26.383Z,1006047.0
2023-05-14T16:50:25.788Z,1017056.0
2023-05-14T16:53:25.819Z,1002895.0
2023-05-14T16:56:25.769Z,1009130.0
2023-05-14T16:59:26.328Z,1009591.0
2023-05-14T17:02:30.467Z,1007329.0
2023-05-14T17:05:27.460Z,1003810.0
2023-05-14T17:08:26.467Z,1006047.0
2023-05-14T17:11:25.698Z,1004327.0
2023-05-14T17:14:25.868Z,1002706.0
2023-05-14T17:17:27.452Z,1004904.0
2023-05-14T17:20:26.242Z,1002824.0
2023-05-14T17:23:25.736Z,1004347.0
2023-05-14T17:26:26.072Z,1003218.0
2023-05-14T17:29:26.085Z,1003880.0
2023-05-14T17:32:26.190Z,1002865.0
2023-05-14T17:35:26.158Z,1002494.0
2023-05-14T17:38:25.757Z,1004021.0
2023-05-14T17:41:25.925Z,1002233.0
2023-05-14T17:44:28.217Z,1001306.0
2023-05-14T17:47:36.228Z,1003364.0
2023-05-14T17:50:25.852Z,1001130.0
2023-05-14T17:53:27.258Z,1004021.0
2023-05-14T17:56:25.826Z,1006117.0
2023-05-14T17:59:25.810Z,1001462.0
2023-05-14T18:02:26.064Z,1002828.0
2023-05-14T18:05:26.486Z,1001489.0
2023-05-14T18:08:25.876Z,1001799.0
2023-05-14T18:11:25.792Z,1001933.0
2023-05-14T18:14:25.870Z,1001314.0
2023-05-14T18:17:25.998Z,1002050.0
2023-05-14T18:20:25.963Z,1007273.0
2023-05-14T18:23:25.823Z,1003585.0
2023-05-14T18:26:27.359Z,1002157.0
2023-05-14T18:29:25.891Z,1002835.0
2023-05-14T18:32:26.242Z,1001706.0
2023-05-14T18:35:25.961Z,1001937.0
2023-05-14T18:38:25.928Z,1000949.0
2023-05-14T18:41:25.876Z,1002505.0
2023-05-14T18:44:25.808Z,1001863.0
2023-05-14T18:47:26.500Z,1001351.0
2023-05-14T18:50:26.505Z,1002644.0
2023-05-14T18:53:25.902Z,1001195.0
2023-05-14T18:56:25.778Z,1001669.0
2023-05-14T18:59:25.864Z,1002503.0
2023-05-14T19:02:26.281Z,60763.3
2023-05-14T19:05:36.318Z,1001127.0
2023-05-14T19:08:26.029Z,1000577.0
2023-05-14T19:11:25.761Z,1000737.0
2023-05-14T19:14:25.764Z,1000435.0
2023-05-14T19:17:25.939Z,13611.6
2023-05-14T19:20:25.889Z,1000000.0
2023-05-14T19:23:25.887Z,1000000.0
2023-05-14T19:26:29.476Z,1000000.0
2023-05-14T19:29:25.902Z,1000000.0
2023-05-14T19:32:26.280Z,1000000.0
2023-05-14T19:35:26.095Z,1000000.0
2023-05-14T19:38:25.844Z,1000000.0
2023-05-14T19:41:25.742Z,1000000.0
2023-05-14T19:44:25.815Z,1000000.0
2023-05-14T19:47:27.336Z,1000000.0
2023-05-14T19:50:25.817Z,1000000.0
2023-05-14T19:53:25.716Z,1000000.0
2023-05-14T19:56:27.210Z,1000000.0
2023-05-14T19:59:25.821Z,1000003.0
2023-05-14T20:02:26.120Z,1000034.0
2023-05-14T20:05:25.987Z,1000072.0
2023-05-14T20:08:28.526Z,1000102.0
2023-05-14T20:11:25.755Z,1000129.0
2023-05-14T20:14:27.755Z,1000164.0
2023-05-14T20:17:26.088Z,1000197.0
2023-05-14T20:20:26.556Z,1000222.0
2023-05-14T20:23:25.780Z,1000234.0
2023-05-14T20:26:25.834Z,1000250.0
2023-05-14T20:29:25.771Z,1012912.0
2023-05-14T20:32:26.250Z,1002138.0
2023-05-14T20:35:26.138Z,1001122.0
2023-05-14T20:38:25.816Z,1001015.0
2023-05-14T20:41:26.039Z,1000957.0
2023-05-14T20:44:25.647Z,1000915.0
2023-05-14T20:47:26.069Z,1000899.0
2023-05-14T20:50:25.917Z,1000820.0
2023-05-14T20:53:25.786Z,1000842.0
2023-05-14T20:56:26.905Z,1000774.0
2023-05-14T20:59:25.718Z,1000755.0
2023-05-14T21:02:26.192Z,1000719.0
2023-05-14T21:05:27.485Z,1000628.0
2023-05-14T21:08:25.796Z,1000577.0
2023-05-14T21:11:25.979Z,1000579.0
2023-05-14T21:14:25.893Z,1000561.0
2023-05-14T21:17:26.210Z,1000551.0
2023-05-14T21:20:26.287Z,1000496.0
2023-05-14T21:23:25.775Z,1000440.0
2023-05-14T21:26:25.815Z,1000416.0
2023-05-14T21:29:25.793Z,1000412.0
2023-05-14T21:32:25.909Z,1000404.0
2023-05-14T21:35:26.107Z,1000398.0
2023-05-14T21:38:25.797Z,1000391.0
2023-05-14T21:41:25.771Z,1000385.0
2023-05-14T21:44:25.701Z,1000391.0
2023-05-14T21:47:25.933Z,1000392.0
2023-05-14T21:50:26.285Z,1000392.0
2023-05-14T21:53:25.825Z,1000397.0
2023-05-14T21:56:25.890Z,1000412.0
2023-05-14T21:59:27.704Z,1000404.0
2023-05-14T22:02:39.985Z,1000424.0
2023-05-14T22:05:26.364Z,1000426.0
2023-05-14T22:08:25.845Z,1000463.0
2023-05-14T22:11:27.114Z,1000481.0
2023-05-14T22:14:25.760Z,1000485.0
2023-05-14T22:17:34.260Z,1000488.0
2023-05-14T22:20:27.441Z,1000487.0
2023-05-14T22:23:25.775Z,1000476.0
2023-05-14T22:26:25.845Z,1000462.0
2023-05-14T22:29:25.869Z,1000458.0
2023-05-14T22:32:26.161Z,1000440.0
2023-05-14T22:35:26.290Z,1000412.0
2023-05-14T22:38:25.773Z,1000436.0
2023-05-14T22:41:25.762Z,1000412.0
2023-05-14T22:44:26.646Z,1000404.0
2023-05-14T22:47:25.962Z,1000405.0
2023-05-14T22:50:27.558Z,1000402.0
2023-05-14T22:53:25.712Z,1000400.0
2023-05-14T22:56:26.787Z,1000380.0
2023-05-14T22:59:25.715Z,1000362.0
2023-05-14T23:02:26.236Z,1000353.0
2023-05-14T23:05:26.280Z,1000377.0
2023-05-14T23:08:25.759Z,1000388.0
2023-05-14T23:11:25.716Z,1000387.0
2023-05-14T23:14:25.847Z,1000402.0
2023-05-14T23:17:25.828Z,1000430.0
2023-05-14T23:20:27.022Z,1000427.0
2023-05-14T23:23:25.692Z,1000426.0
2023-05-14T23:26:25.805Z,1000441.0
2023-05-14T23:29:25.710Z,1000436.0
2023-05-14T23:32:26.118Z,1000443.0
2023-05-14T23:35:26.043Z,1000461.0
2023-05-14T23:38:25.820Z,1000452.0
2023-05-14T23:41:25.785Z,1000465.0
2023-05-14T23:44:25.760Z,1000469.0
2023-05-14T23:47:25.992Z,1000465.0
2023-05-14T23:50:26.021Z,1000469.0
2023-05-14T23:53:25.764Z,1000474.0
2023-05-14T23:56:25.723Z,1000461.0
2023-05-14T23:59:25.728Z,1000473.0
